Breb Countess — CQIR2 — position and weather

sailwx.info

Track history (hours):
 
Tides and Currents Weather Stations Pressure Air Temp Water Temp Dewpoint Dewpoint Depression Visibility Wind Speed Wind Dir Waves Ship Positions

Breb Countess

Last reported at 2018-Jul-20 19:36 UTC. Time now 2018-Jul-21 15:30 UTC.
Position N 37°12' E 004°49'.

Length 108 m; draft 4.5 m.

Type: Cargo ship. MMSI: 255806043.

Date/timePositionNaut miles runAvg speedWind from/ knotsBaromVisibWave heightAir tempDewpointWater temp
2018-Jul-20 19:36N 37°12' E 004°49'210.4
2018-Jul-20 19:22N 37°12' E 004°46'410.4
2018-Jul-20 18:57N 37°11' E 004°41'510.4
2018-Jul-20 18:30N 37°11' E 004°35'710.2
2018-Jul-20 17:47N 37°10' E 004°26'5010.1
2018-Jul-20 12:48N 37°01' E 003°24'11311.2
2018-Jul-20 02:44N 36°38' E 001°06'311.7
2018-Jul-20 02:30N 36°37' E 001°03'611.6
2018-Jul-20 02:00N 36°35' E 000°56'611.2
2018-Jul-20 01:29N 36°32' E 000°50'2911.0
2018-Jul-19 22:52N 36°17' E 000°20'710.9
2018-Jul-19 22:13N 36°13' E 000°13'311.2
2018-Jul-19 21:55N 36°10' E 000°10'511.1
2018-Jul-19 21:30N 36°07' E 000°06'4 0.1
2018-Jul-18 18:37N 36°09' E 000°10'110.8
2018-Jul-18 18:30N 36°10' E 000°11'910.7
2018-Jul-18 17:39N 36°16' E 000°19'132 9.1
2018-Jul-18 03:05N 36°57' E 002°56'610.8
2018-Jul-18 02:34N 36°58' E 003°03'110.9
2018-Jul-18 02:30N 36°58' E 003°04'7510.7
2018-Jul-17 19:29N 37°09' E 004°37'  
2018-Jul-13 16:12N 34°25' E 011°02'210.0
2018-Jul-13 15:59N 34°25' E 011°04'510.1
2018-Jul-13 15:30N 34°25' E 011°10'3610.2
2018-Jul-13 11:56N 34°36' E 011°52'510.7
2018-Jul-13 11:30N 34°38' E 011°57'510.6
2018-Jul-13 11:00N 34°40' E 012°04'510.2
2018-Jul-13 10:30N 34°43' E 012°09'510.3
2018-Jul-13 10:00N 34°46' E 012°13'510.3
2018-Jul-13 09:29N 34°49' E 012°18'510.3
2018-Jul-13 09:00N 34°53' E 012°23'510.3
2018-Jul-13 08:30N 34°56' E 012°27'710.3
2018-Jul-13 07:47N 35°01' E 012°34'310.2
2018-Jul-13 07:30N 35°03' E 012°36'510.2
2018-Jul-13 07:00N 35°07' E 012°40'510.2
2018-Jul-13 06:29N 35°11' E 012°45'1310.0
2018-Jul-13 05:08N 35°20' E 012°57'210.2
2018-Jul-13 04:55N 35°22' E 012°59'410.4
2018-Jul-13 04:30N 35°25' E 013°03'510.4
2018-Jul-13 04:00N 35°29' E 013°07'510.4
2018-Jul-13 03:30N 35°32' E 013°11'510.7
2018-Jul-13 03:00N 35°36' E 013°16'510.6
2018-Jul-13 02:30N 35°40' E 013°21'510.6
2018-Jul-13 02:00N 35°44' E 013°25'610.7
2018-Jul-13 01:29N 35°48' E 013°30'610.5
2018-Jul-13 00:57N 35°52' E 013°34'510.5
2018-Jul-13 00:30N 35°55' E 013°38'510.6
2018-Jul-12 23:59N 35°59' E 013°43'510.7
2018-Jul-12 23:30N 36°03' E 013°47'510.6
2018-Jul-12 23:00N 36°07' E 013°52'510.5
2018-Jul-12 22:30N 36°10' E 013°57'510.4
2018-Jul-12 22:00N 36°14' E 014°01'510.3
2018-Jul-12 21:30N 36°17' E 014°07'510.3
2018-Jul-12 21:00N 36°19' E 014°13'510.3
2018-Jul-12 20:30N 36°20' E 014°19'510.3
2018-Jul-12 20:00N 36°22' E 014°25'510.1
2018-Jul-12 19:30N 36°24' E 014°30'5 9.9
2018-Jul-12 19:00N 36°26' E 014°36'5 9.8
2018-Jul-12 18:30N 36°28' E 014°42'5 9.7
2018-Jul-12 18:00N 36°30' E 014°47'5 9.3
2018-Jul-12 17:30N 36°32' E 014°53'5 9.6
2018-Jul-12 16:59N 36°34' E 014°58'5 9.6
2018-Jul-12 16:30N 36°35' E 015°04'  
Track history (hours):
 
Tides and Currents Weather Stations Pressure Air Temp Water Temp Dewpoint Dewpoint Depression Visibility Wind Speed Wind Dir Waves Ship Positions

Breb Countess

Last reported at 2018-Jul-20 19:36 UTC. Time now 2018-Jul-21 15:30 UTC.
Position N 37°12' E 004°49'.

Length 108 m; draft 4.5 m.

Type: Cargo ship. MMSI: 255806043.

Date/timePositionNaut miles runAvg speedWind from/ knotsBaromVisibWave heightAir tempDewpointWater temp
2018-Jul-20 19:36N 37°12' E 004°49'210.4
2018-Jul-20 19:22N 37°12' E 004°46'410.4
2018-Jul-20 18:57N 37°11' E 004°41'510.4
2018-Jul-20 18:30N 37°11' E 004°35'710.2
2018-Jul-20 17:47N 37°10' E 004°26'5010.1
2018-Jul-20 12:48N 37°01' E 003°24'11311.2
2018-Jul-20 02:44N 36°38' E 001°06'311.7
2018-Jul-20 02:30N 36°37' E 001°03'611.6
2018-Jul-20 02:00N 36°35' E 000°56'611.2
2018-Jul-20 01:29N 36°32' E 000°50'2911.0
2018-Jul-19 22:52N 36°17' E 000°20'710.9
2018-Jul-19 22:13N 36°13' E 000°13'311.2
2018-Jul-19 21:55N 36°10' E 000°10'511.1
2018-Jul-19 21:30N 36°07' E 000°06'4 0.1
2018-Jul-18 18:37N 36°09' E 000°10'110.8
2018-Jul-18 18:30N 36°10' E 000°11'910.7
2018-Jul-18 17:39N 36°16' E 000°19'132 9.1
2018-Jul-18 03:05N 36°57' E 002°56'610.8
2018-Jul-18 02:34N 36°58' E 003°03'110.9
2018-Jul-18 02:30N 36°58' E 003°04'7510.7
2018-Jul-17 19:29N 37°09' E 004°37'  
2018-Jul-13 16:12N 34°25' E 011°02'210.0
2018-Jul-13 15:59N 34°25' E 011°04'510.1
2018-Jul-13 15:30N 34°25' E 011°10'3610.2
2018-Jul-13 11:56N 34°36' E 011°52'510.7
2018-Jul-13 11:30N 34°38' E 011°57'510.6
2018-Jul-13 11:00N 34°40' E 012°04'510.2
2018-Jul-13 10:30N 34°43' E 012°09'510.3
2018-Jul-13 10:00N 34°46' E 012°13'510.3
2018-Jul-13 09:29N 34°49' E 012°18'510.3
2018-Jul-13 09:00N 34°53' E 012°23'510.3
2018-Jul-13 08:30N 34°56' E 012°27'710.3
2018-Jul-13 07:47N 35°01' E 012°34'310.2
2018-Jul-13 07:30N 35°03' E 012°36'510.2
2018-Jul-13 07:00N 35°07' E 012°40'510.2
2018-Jul-13 06:29N 35°11' E 012°45'1310.0
2018-Jul-13 05:08N 35°20' E 012°57'210.2
2018-Jul-13 04:55N 35°22' E 012°59'410.4
2018-Jul-13 04:30N 35°25' E 013°03'510.4
2018-Jul-13 04:00N 35°29' E 013°07'510.4
2018-Jul-13 03:30N 35°32' E 013°11'510.7
2018-Jul-13 03:00N 35°36' E 013°16'510.6
2018-Jul-13 02:30N 35°40' E 013°21'510.6
2018-Jul-13 02:00N 35°44' E 013°25'610.7
2018-Jul-13 01:29N 35°48' E 013°30'610.5
2018-Jul-13 00:57N 35°52' E 013°34'510.5
2018-Jul-13 00:30N 35°55' E 013°38'510.6
2018-Jul-12 23:59N 35°59' E 013°43'510.7
2018-Jul-12 23:30N 36°03' E 013°47'510.6
2018-Jul-12 23:00N 36°07' E 013°52'510.5
2018-Jul-12 22:30N 36°10' E 013°57'510.4
2018-Jul-12 22:00N 36°14' E 014°01'510.3
2018-Jul-12 21:30N 36°17' E 014°07'510.3
2018-Jul-12 21:00N 36°19' E 014°13'510.3
2018-Jul-12 20:30N 36°20' E 014°19'510.3
2018-Jul-12 20:00N 36°22' E 014°25'510.1
2018-Jul-12 19:30N 36°24' E 014°30'5 9.9
2018-Jul-12 19:00N 36°26' E 014°36'5 9.8
2018-Jul-12 18:30N 36°28' E 014°42'5 9.7
2018-Jul-12 18:00N 36°30' E 014°47'5 9.3
2018-Jul-12 17:30N 36°32' E 014°53'5 9.6
2018-Jul-12 16:59N 36°34' E 014°58'5 9.6
2018-Jul-12 16:30N 36°35' E 015°04'  

Dump ship's entire track history